Estación de Longaví Norte
Ultimos registro cada 15 minutos 59
| N° | Estación | Fecha / Hora | Temperatura | Humedad | Lluvia | Velocidad | Dirección | Radiación | Presion |
| 59 | Longaví Norte | 06-05-2026 14:30 | 17 | 82,1 | 0 | 1,3 | 244 | 295,6 | 998,8 |
| 58 | Longaví Norte | 06-05-2026 14:15 | 18,2 | 80,8 | 0 | 1,7 | 244 | 649,4 | 998,5 |
| 57 | Longaví Norte | 06-05-2026 14:00 | 15,6 | 90,4 | 0 | 1,7 | 234 | 448,1 | 998,1 |
| 56 | Longaví Norte | 06-05-2026 13:45 | 14,9 | 99,1 | 0 | 1 | 270 | 225,6 | 998 |
| 55 | Longaví Norte | 06-05-2026 13:30 | 14,3 | 99,9 | 0 | 1,3 | 284 | 225,6 | 997,7 |
| 54 | Longaví Norte | 06-05-2026 13:15 | 14,4 | 100 | 0 | 1,3 | 296 | 253,1 | 997,3 |
| 53 | Longaví Norte | 06-05-2026 13:00 | 14,8 | 99,7 | 0 | 1,3 | 281 | 503,1 | 997 |
| 52 | Longaví Norte | 06-05-2026 12:45 | 14,1 | 100 | 1,4 | 1,3 | 295 | 400,6 | 996,7 |
| 51 | Longaví Norte | 06-05-2026 12:30 | 14,1 | 100 | 0,4 | 1 | 15 | 74,4 | 995,9 |
| 50 | Longaví Norte | 06-05-2026 12:15 | 14 | 100 | 0 | 1 | 21 | 89,4 | 995,9 |
| 49 | Longaví Norte | 06-05-2026 12:00 | 13,6 | 100 | 0 | 1 | 3 | 95,6 | 995,7 |
| 48 | Longaví Norte | 06-05-2026 11:45 | 13,5 | 100 | 1,2 | 1 | 27 | 48,1 | 995,6 |
| 47 | Longaví Norte | 06-05-2026 11:30 | 13,2 | 100 | 1,6 | 1,3 | 31 | 64,4 | 995,4 |
| 46 | Longaví Norte | 06-05-2026 11:15 | 13,1 | 100 | 4,2 | 1,3 | 39 | 63,1 | 995 |
| 45 | Longaví Norte | 06-05-2026 11:00 | 12,9 | 100 | 1,6 | 1,3 | 44 | 11,9 | 994,9 |
| 44 | Longaví Norte | 06-05-2026 10:45 | 12,9 | 100 | 1 | 1,3 | 39 | 3,1 | 994,7 |
| 43 | Longaví Norte | 06-05-2026 10:30 | 12,9 | 100 | 0,6 | 1,3 | 38 | 4,4 | 994,8 |
| 42 | Longaví Norte | 06-05-2026 10:15 | 13,1 | 100 | 0 | 1,3 | 31 | 61,9 | 994,9 |
| 41 | Longaví Norte | 06-05-2026 10:00 | 12,9 | 100 | 0 | 1,7 | 38 | 56,9 | 994,5 |
| 40 | Longaví Norte | 06-05-2026 09:45 | 12,8 | 99,9 | 0,2 | 2 | 38 | 38,1 | 994,6 |
| 39 | Longaví Norte | 06-05-2026 09:30 | 12,6 | 100 | 0,6 | 1,3 | 37 | 43,1 | 994,5 |
| 38 | Longaví Norte | 06-05-2026 09:15 | 12,5 | 100 | 1,6 | 1,7 | 25 | 4,4 | 994,2 |
| 37 | Longaví Norte | 06-05-2026 09:00 | 12,5 | 99,9 | 0 | 1,7 | 32 | 5,6 | 993,6 |
| 36 | Longaví Norte | 06-05-2026 08:45 | 12,4 | 99,9 | 0,2 | 1,7 | 29 | 36,9 | 993,8 |
| 35 | Longaví Norte | 06-05-2026 08:30 | 12,4 | 99,8 | 0,6 | 1,3 | 37 | 11,9 | 993,4 |
| 34 | Longaví Norte | 06-05-2026 08:15 | 12,3 | 99,7 | 0,4 | 1,3 | 35 | 1,9 | 993,8 |
| 33 | Longaví Norte | 06-05-2026 08:00 | 12,3 | 99,6 | 0 | 1,7 | 38 | 1,9 | 993,7 |
| 32 | Longaví Norte | 06-05-2026 07:45 | 12,4 | 99,6 | 0,2 | 1,3 | 31 | 0,6 | 993,7 |
| 31 | Longaví Norte | 06-05-2026 07:30 | 12,3 | 99,5 | 0,2 | 1,3 | 35 | 0,6 | 993,7 |
| 30 | Longaví Norte | 06-05-2026 07:15 | 12,3 | 99,4 | 0,6 | 1 | 34 | 0,6 | 993,5 |
| 29 | Longaví Norte | 06-05-2026 07:00 | 12,4 | 99,3 | 0,6 | 1,3 | 28 | 0,6 | 993,5 |
| 28 | Longaví Norte | 06-05-2026 06:45 | 12,4 | 99,1 | 0,4 | 1,3 | 32 | 0,6 | 993,5 |
| 27 | Longaví Norte | 06-05-2026 06:30 | 12,4 | 99,1 | 0,6 | 1,3 | 25 | 0,6 | 993,2 |
| 26 | Longaví Norte | 06-05-2026 06:15 | 12,5 | 98,9 | 0,8 | 1 | 27 | 0,6 | 993,1 |
| 25 | Longaví Norte | 06-05-2026 06:00 | 12,6 | 98,7 | 1,2 | 1,3 | 15 | 0,6 | 993,1 |
| 24 | Longaví Norte | 06-05-2026 05:45 | 12,6 | 98,7 | 0,4 | 1,3 | 14 | 0,6 | 993 |
| 23 | Longaví Norte | 06-05-2026 05:30 | 12,7 | 98,5 | 0,8 | 1,7 | 21 | 0,6 | 992,8 |
| 22 | Longaví Norte | 06-05-2026 05:15 | 12,7 | 97,9 | 2 | 1,3 | 20 | 0,6 | 992,9 |
| 21 | Longaví Norte | 06-05-2026 05:00 | 13 | 93,6 | 3 | 1,3 | 6 | 0,6 | 993 |
| 20 | Longaví Norte | 06-05-2026 04:45 | 15,2 | 81,6 | 0 | 1,7 | 13 | 0,6 | 992,9 |
| 19 | Longaví Norte | 06-05-2026 04:30 | 15,7 | 78,9 | 0 | 2 | 25 | 0,6 | 992,5 |
| 18 | Longaví Norte | 06-05-2026 04:15 | 16 | 76,5 | 0 | 2 | 31 | 0,6 | 992,3 |
| 17 | Longaví Norte | 06-05-2026 04:00 | 15,7 | 78,4 | 0 | 1,7 | 35 | 0,6 | 992,4 |
| 16 | Longaví Norte | 06-05-2026 03:45 | 15,4 | 80,1 | 0 | 1,7 | 37 | 0,6 | 992,8 |
| 15 | Longaví Norte | 06-05-2026 03:30 | 14,9 | 82,6 | 0 | 0,7 | 28 | 0,6 | 993,3 |
| 14 | Longaví Norte | 06-05-2026 03:15 | 14,6 | 84,2 | 0 | 1 | 21 | 0,6 | 993,6 |
| 13 | Longaví Norte | 06-05-2026 03:00 | 14,3 | 85,4 | 0 | 1 | 29 | 0,6 | 993,8 |
| 12 | Longaví Norte | 06-05-2026 02:45 | 14,2 | 85,7 | 0 | 0,7 | 29 | 0,6 | 993,9 |
| 11 | Longaví Norte | 06-05-2026 02:30 | 14,1 | 85,8 | 0 | 1,3 | 34 | 0,6 | 993,9 |
| 10 | Longaví Norte | 06-05-2026 02:15 | 13,9 | 86,7 | 0 | 1,3 | 34 | 0,6 | 993,8 |
| 9 | Longaví Norte | 06-05-2026 02:00 | 13,7 | 87,2 | 0 | 1,3 | 38 | 0,6 | 993,6 |
| 8 | Longaví Norte | 06-05-2026 01:45 | 13,5 | 87,7 | 0 | 1 | 41 | 0,6 | 993,6 |
| 7 | Longaví Norte | 06-05-2026 01:30 | 13,6 | 88 | 0 | 1 | 39 | 0,6 | 993,8 |
| 6 | Longaví Norte | 06-05-2026 01:15 | 13,2 | 89,9 | 0 | 0,7 | 46 | 0,6 | 994,1 |
| 5 | Longaví Norte | 06-05-2026 01:00 | 12,9 | 91 | 0 | 0,7 | 34 | 0,6 | 994,1 |
| 4 | Longaví Norte | 06-05-2026 00:45 | 12,9 | 90,9 | 0 | 0,7 | 39 | 0,6 | 994,3 |
| 3 | Longaví Norte | 06-05-2026 00:30 | 13,1 | 90,1 | 0 | 0,7 | 32 | 0,6 | 994,7 |
| 2 | Longaví Norte | 06-05-2026 00:15 | 13,5 | 88,4 | 0 | 1 | 7 | 0,6 | 994,8 |
| 1 | Longaví Norte | 06-05-2026 00:00 | 13,9 | 87,4 | 0 | 1 | 21 | 0,6 | 994,7 |